Time;durP1;ratioP1;P1;durP2;ratioP2;P2;SDS_P1;SDS_P2;PMS_P1;PMS_P2;Temp;Humidity;BMP_temperature;BMP_pressure;BME280_temperature;BME280_humidity;BME280_pressure;Samples;Min_cycle;Max_cycle;Signal;HPM_P1;HPM_P2
2023/11/07 00:00:09;;;;;;;;;;;11.80;75.60;;;;;;5112937;27;19919;-68
2023/11/07 00:02:35;;;;;;;;;;;11.70;75.40;;;;;;5113930;28;19916;-68
2023/11/07 00:05:02;;;;;;;;;;;11.80;75.60;;;;;;5113678;28;20014;-68
2023/11/07 00:07:28;;;;;;;;;;;11.70;75.60;;;;;;5113706;28;19951;-68
2023/11/07 00:09:54;;;;;;;;;;;11.70;75.70;;;;;;5113317;28;20333;-69
2023/11/07 00:12:21;;;;;;;;;;;11.70;75.70;;;;;;5111716;28;19931;-68
2023/11/07 00:14:47;;;;;;;;;;;11.60;75.60;;;;;;5111421;28;19911;-69
2023/11/07 00:17:13;;;;;;;;;;;11.60;76.00;;;;;;5113543;28;20000;-69
2023/11/07 00:19:39;;;;;;;;;;;11.50;76.00;;;;;;5112049;28;20384;-69
2023/11/07 00:22:05;;;;;;;;;;;11.50;76.00;;;;;;5111366;28;19916;-68
2023/11/07 00:24:31;;;;;;;;;;;11.50;76.20;;;;;;5112222;28;19960;-68
2023/11/07 00:29:41;;;;;;;;;;;11.50;76.20;;;;;;5113404;28;20418;-68
2023/11/07 00:32:07;;;;;;;;;;;11.40;76.00;;;;;;5094706;28;20006;-68
2023/11/07 00:34:33;;;;;;;;;;;11.50;76.10;;;;;;5112223;28;19920;-68
2023/11/07 00:36:58;;;;;;;;;;;11.50;75.90;;;;;;5112045;28;19915;-68
2023/11/07 00:39:25;;;;;;;;;;;11.50;75.90;;;;;;5111736;28;19916;-68
2023/11/07 00:41:51;;;;;;;;;;;11.60;75.90;;;;;;5111611;28;19916;-68
2023/11/07 00:44:18;;;;;;;;;;;11.60;75.60;;;;;;5112049;28;19915;-68
2023/11/07 00:46:44;;;;;;;;;;;11.60;75.50;;;;;;5113342;28;20010;-69
2023/11/07 00:49:09;;;;;;;;;;;11.60;75.40;;;;;;5111774;28;20287;-69
2023/11/07 00:51:35;;;;;;;;;;;11.60;75.40;;;;;;5112589;28;19916;-69
2023/11/07 00:54:01;;;;;;;;;;;11.70;75.60;;;;;;5113129;28;19916;-68
2023/11/07 00:56:27;;;;;;;;;;;11.60;75.40;;;;;;5113054;28;19919;-68
2023/11/07 00:58:53;;;;;;;;;;;11.70;75.40;;;;;;5113166;28;19919;-68
2023/11/07 01:01:19;;;;;;;;;;;11.70;75.40;;;;;;5112471;28;20280;-69
2023/11/07 01:03:45;;;;;;;;;;;11.70;75.40;;;;;;5111799;28;19916;-68
2023/11/07 01:06:11;;;;;;;;;;;11.70;75.40;;;;;;5113095;28;19920;-68
2023/11/07 01:08:37;;;;;;;;;;;11.70;74.80;;;;;;5094373;28;19916;-68
2023/11/07 01:11:04;;;;;;;;;;;11.70;75.30;;;;;;5111047;28;20010;-69
2023/11/07 01:13:30;;;;;;;;;;;11.80;75.10;;;;;;5094699;28;19915;-68
2023/11/07 01:15:56;;;;;;;;;;;11.80;75.10;;;;;;5111438;28;20049;-69
2023/11/07 01:18:23;;;;;;;;;;;11.80;75.10;;;;;;5111353;28;19915;-68
2023/11/07 01:20:48;;;;;;;;;;;11.80;75.10;;;;;;5110944;28;19984;-69
2023/11/07 01:23:15;;;;;;;;;;;11.80;75.10;;;;;;5111467;28;19911;-69
2023/11/07 01:25:41;;;;;;;;;;;11.70;75.00;;;;;;5113539;28;20261;-68
2023/11/07 01:28:07;;;;;;;;;;;11.70;75.00;;;;;;5116428;28;20360;-69
2023/11/07 01:30:33;;;;;;;;;;;11.70;74.60;;;;;;5115725;28;19916;-68
2023/11/07 01:32:59;;;;;;;;;;;11.60;75.20;;;;;;5115229;28;19916;-68
2023/11/07 01:35:25;;;;;;;;;;;11.60;75.50;;;;;;5114932;28;20341;-68
2023/11/07 01:37:51;;;;;;;;;;;11.60;75.60;;;;;;5116202;28;19951;-68
2023/11/07 01:40:17;;;;;;;;;;;11.50;75.90;;;;;;5115382;27;20345;-69
2023/11/07 01:43:02;;;;;;;;;;;11.40;75.80;;;;;;5115251;28;20352;-68
2023/11/07 01:45:28;;;;;;;;;;;11.30;75.90;;;;;;5116174;28;19938;-67
2023/11/07 01:47:54;;;;;;;;;;;11.30;76.10;;;;;;5097776;28;19984;-68
2023/11/07 01:50:20;;;;;;;;;;;11.30;76.20;;;;;;5114245;28;20402;-68
2023/11/07 01:52:46;;;;;;;;;;;11.20;76.20;;;;;;5114833;28;19916;-69
2023/11/07 01:55:14;;;;;;;;;;;11.10;76.30;;;;;;5115952;28;19966;-68
2023/11/07 01:58:02;;;;;;;;;;;11.10;76.30;;;;;;5114829;28;19916;-68
2023/11/07 02:00:29;;;;;;;;;;;11.00;76.10;;;;;;5115195;27;19926;-69
2023/11/07 02:02:58;;;;;;;;;;;11.00;76.10;;;;;;5114681;28;20372;-69
2023/11/07 02:05:24;;;;;;;;;;;11.00;76.10;;;;;;5114428;28;19969;-68
2023/11/07 02:07:50;;;;;;;;;;;10.90;75.70;;;;;;5114266;28;20295;-68
2023/11/07 02:10:17;;;;;;;;;;;10.90;76.30;;;;;;5114881;28;19911;-69
2023/11/07 02:12:43;;;;;;;;;;;10.80;76.10;;;;;;5116098;28;19919;-68
2023/11/07 02:15:27;;;;;;;;;;;10.80;76.30;;;;;;5115523;28;19922;-68
2023/11/07 02:17:53;;;;;;;;;;;10.80;76.10;;;;;;5114199;28;20011;-68
2023/11/07 02:20:20;;;;;;;;;;;10.70;76.30;;;;;;5113366;27;19912;-69
2023/11/07 02:22:47;;;;;;;;;;;10.70;76.50;;;;;;5114483;28;20353;-69
2023/11/07 02:25:14;;;;;;;;;;;10.60;76.20;;;;;;5114116;28;20388;-69
2023/11/07 02:27:43;;;;;;;;;;;10.60;76.30;;;;;;5114239;28;20482;-69
2023/11/07 02:30:12;;;;;;;;;;;10.60;76.30;;;;;;5113420;28;19943;-69
2023/11/07 02:32:42;;;;;;;;;;;10.50;76.20;;;;;;5097314;28;19923;-68
2023/11/07 02:35:27;;;;;;;;;;;10.50;76.20;;;;;;5115131;28;19922;-68
2023/11/07 02:37:53;;;;;;;;;;;10.50;76.20;;;;;;5112829;28;19968;-69
2023/11/07 02:40:19;;;;;;;;;;;10.40;76.20;;;;;;5113205;28;20325;-67
2023/11/07 02:42:45;;;;;;;;;;;10.40;76.20;;;;;;5114942;28;20052;-69
2023/11/07 02:45:11;;;;;;;;;;;10.40;76.30;;;;;;5114849;28;20010;-69
2023/11/07 02:47:37;;;;;;;;;;;10.40;76.10;;;;;;5096854;28;19915;-68
2023/11/07 02:50:04;;;;;;;;;;;10.40;76.20;;;;;;5114317;28;19926;-68
2023/11/07 02:52:31;;;;;;;;;;;10.40;75.50;;;;;;5115149;28;19915;-68
2023/11/07 02:54:57;;;;;;;;;;;10.30;76.20;;;;;;5114642;27;19965;-69
2023/11/07 02:57:23;;;;;;;;;;;10.30;76.10;;;;;;5113471;28;19919;-69
2023/11/07 02:59:49;;;;;;;;;;;10.30;76.10;;;;;;5114679;28;20318;-69
2023/11/07 03:02:17;;;;;;;;;;;10.40;76.10;;;;;;5113909;28;20463;-69
2023/11/07 03:04:43;;;;;;;;;;;10.40;76.00;;;;;;5114751;28;20022;-68
2023/11/07 03:07:11;;;;;;;;;;;10.30;75.90;;;;;;5096500;28;19919;-68
2023/11/07 03:09:36;;;;;;;;;;;10.30;75.40;;;;;;5113087;28;19956;-68
2023/11/07 03:12:03;;;;;;;;;;;10.30;76.20;;;;;;5114103;27;20369;-68
2023/11/07 03:14:28;;;;;;;;;;;10.20;76.00;;;;;;5114470;28;19911;-68
2023/11/07 03:16:55;;;;;;;;;;;10.20;76.00;;;;;;5114539;28;20108;-68
2023/11/07 03:19:21;;;;;;;;;;;10.10;76.00;;;;;;5113031;28;19934;-68
2023/11/07 03:21:47;;;;;;;;;;;10.10;76.10;;;;;;5112463;28;19920;-69
2023/11/07 03:24:15;;;;;;;;;;;10.00;76.40;;;;;;5112891;28;19916;-69
2023/11/07 03:26:40;;;;;;;;;;;10.00;76.40;;;;;;5114314;28;20440;-69
2023/11/07 03:29:06;;;;;;;;;;;10.00;76.20;;;;;;5114248;28;19918;-67
2023/11/07 03:31:32;;;;;;;;;;;10.00;76.00;;;;;;5112157;28;20010;-70
2023/11/07 03:33:58;;;;;;;;;;;10.00;76.00;;;;;;5113014;28;20460;-70
2023/11/07 03:36:24;;;;;;;;;;;9.90;76.00;;;;;;5113968;27;19923;-68
2023/11/07 03:38:50;;;;;;;;;;;10.00;76.00;;;;;;5113601;28;19950;-68
2023/11/07 03:41:16;;;;;;;;;;;9.90;76.00;;;;;;5112080;28;20405;-69
2023/11/07 03:43:42;;;;;;;;;;;9.90;75.60;;;;;;5095772;28;19915;-68
2023/11/07 03:46:08;;;;;;;;;;;9.80;75.30;;;;;;5112626;28;19954;-68
2023/11/07 03:48:34;;;;;;;;;;;9.70;74.90;;;;;;5112308;28;20261;-68
2023/11/07 03:51:00;;;;;;;;;;;9.70;75.00;;;;;;5113238;27;20022;-68
2023/11/07 03:53:26;;;;;;;;;;;9.60;74.90;;;;;;5112296;28;19915;-68
2023/11/07 03:55:52;;;;;;;;;;;9.60;75.00;;;;;;5112219;28;19919;-68
2023/11/07 03:58:18;;;;;;;;;;;9.60;75.10;;;;;;5113518;28;20383;-69
2023/11/07 04:00:45;;;;;;;;;;;9.60;75.20;;;;;;5111766;28;19920;-71
2023/11/07 04:03:11;;;;;;;;;;;9.60;75.30;;;;;;5113600;28;19923;-71
2023/11/07 04:05:37;;;;;;;;;;;9.50;75.30;;;;;;5112294;28;19912;-71
2023/11/07 04:08:03;;;;;;;;;;;9.50;75.60;;;;;;5111924;28;19926;-71
2023/11/07 04:10:29;;;;;;;;;;;9.50;75.70;;;;;;5112740;28;19916;-69
2023/11/07 04:12:56;;;;;;;;;;;9.50;75.90;;;;;;5095139;28;19998;-70
2023/11/07 04:15:22;;;;;;;;;;;9.40;75.70;;;;;;5112119;28;20382;-68
2023/11/07 04:17:49;;;;;;;;;;;9.40;75.80;;;;;;5112116;28;19927;-70
2023/11/07 04:20:16;;;;;;;;;;;9.40;75.50;;;;;;5111455;28;20168;-67
2023/11/07 04:22:43;;;;;;;;;;;9.40;75.50;;;;;;5112439;28;20280;-68
2023/11/07 04:25:10;;;;;;;;;;;9.40;75.60;;;;;;5112198;28;19965;-68
2023/11/07 04:27:36;;;;;;;;;;;9.30;75.70;;;;;;5112339;28;19919;-68
2023/11/07 04:30:06;;;;;;;;;;;9.40;75.20;;;;;;5111988;28;19919;-68
2023/11/07 04:32:36;;;;;;;;;;;9.30;75.70;;;;;;5111870;28;19915;-68
2023/11/07 04:35:05;;;;;;;;;;;9.30;75.70;;;;;;5112083;28;19963;-69
2023/11/07 04:37:31;;;;;;;;;;;9.30;75.40;;;;;;5113518;28;19926;-68
2023/11/07 04:39:57;;;;;;;;;;;9.30;75.50;;;;;;5111826;28;19915;-69
2023/11/07 04:42:23;;;;;;;;;;;9.30;75.20;;;;;;5094490;28;19957;-68
2023/11/07 04:44:50;;;;;;;;;;;9.30;75.10;;;;;;5112144;28;19922;-68
2023/11/07 04:47:16;;;;;;;;;;;9.30;75.00;;;;;;5111952;28;19916;-67
2023/11/07 04:49:42;;;;;;;;;;;9.30;74.70;;;;;;5113202;28;20002;-68
2023/11/07 04:52:08;;;;;;;;;;;9.40;74.60;;;;;;5111466;28;19920;-68
2023/11/07 04:54:35;;;;;;;;;;;9.30;74.60;;;;;;5112077;28;20405;-68
2023/11/07 04:57:01;;;;;;;;;;;9.40;74.40;;;;;;5113103;28;20346;-67
2023/11/07 04:59:27;;;;;;;;;;;9.40;74.40;;;;;;5111864;28;19911;-68
2023/11/07 05:01:53;;;;;;;;;;;9.40;74.40;;;;;;5116714;28;20014;-68
2023/11/07 05:04:19;;;;;;;;;;;9.50;74.60;;;;;;5115934;28;19916;-68
2023/11/07 05:06:46;;;;;;;;;;;9.50;74.00;;;;;;5115744;28;19939;-68
2023/11/07 05:09:12;;;;;;;;;;;9.50;74.00;;;;;;5115286;28;19915;-68
2023/11/07 05:14:24;;;;;;;;;;;9.60;74.40;;;;;;5115657;28;20398;-68
2023/11/07 05:16:50;;;;;;;;;;;9.60;74.70;;;;;;5115608;28;19916;-68
2023/11/07 05:19:17;;;;;;;;;;;9.60;74.90;;;;;;5116547;28;20300;-68
2023/11/07 05:21:43;;;;;;;;;;;9.70;75.00;;;;;;5116266;28;19926;-68
2023/11/07 05:24:09;;;;;;;;;;;9.70;75.10;;;;;;5115402;28;19919;-68
2023/11/07 05:26:35;;;;;;;;;;;9.80;75.00;;;;;;5116649;28;20049;-68
2023/11/07 05:29:01;;;;;;;;;;;9.80;74.40;;;;;;5115174;28;19920;-68
2023/11/07 05:31:26;;;;;;;;;;;9.80;74.80;;;;;;5114762;28;19988;-70
2023/11/07 05:33:52;;;;;;;;;;;9.80;74.80;;;;;;5116341;28;19919;-70
2023/11/07 05:36:18;;;;;;;;;;;9.80;75.00;;;;;;5116289;28;19922;-68
2023/11/07 05:38:45;;;;;;;;;;;9.70;74.30;;;;;;5114772;28;20273;-68
2023/11/07 05:41:11;;;;;;;;;;;9.70;74.90;;;;;;5097440;28;19915;-68
2023/11/07 05:43:39;;;;;;;;;;;9.70;74.80;;;;;;5110823;28;19916;-69
2023/11/07 05:46:05;;;;;;;;;;;9.60;74.90;;;;;;5114933;28;19924;-69
2023/11/07 05:48:31;;;;;;;;;;;9.60;75.00;;;;;;5114743;28;19915;-68
2023/11/07 05:50:58;;;;;;;;;;;9.60;74.40;;;;;;5114072;28;19919;-69
2023/11/07 05:53:24;;;;;;;;;;;9.60;74.80;;;;;;5106697;27;19922;-69
2023/11/07 05:55:50;;;;;;;;;;;9.70;74.30;;;;;;5094059;28;19942;-68
2023/11/07 05:58:16;;;;;;;;;;;9.70;74.80;;;;;;5095311;28;19912;-68
2023/11/07 06:00:44;;;;;;;;;;;9.70;74.10;;;;;;5093596;28;19928;-68
2023/11/07 06:03:13;;;;;;;;;;;9.70;74.80;;;;;;5094286;28;20291;-69
2023/11/07 06:05:41;;;;;;;;;;;9.70;75.10;;;;;;5095656;28;20030;-68
2023/11/07 06:08:07;;;;;;;;;;;9.70;74.50;;;;;;5094152;28;19915;-70
2023/11/07 06:10:34;;;;;;;;;;;9.80;74.50;;;;;;5092943;28;19946;-70
2023/11/07 06:13:04;;;;;;;;;;;9.80;75.00;;;;;;5092916;28;19970;-68
2023/11/07 06:15:48;;;;;;;;;;;9.90;74.50;;;;;;5095516;28;20349;-68
2023/11/07 06:18:14;;;;;;;;;;;10.00;75.10;;;;;;5095137;28;19943;-70
2023/11/07 06:20:40;;;;;;;;;;;10.00;75.20;;;;;;5076243;28;20377;-69
2023/11/07 06:23:06;;;;;;;;;;;10.00;75.10;;;;;;5095036;28;20293;-69
2023/11/07 06:25:33;;;;;;;;;;;10.00;75.10;;;;;;5093602;28;19970;-68
2023/11/07 06:27:59;;;;;;;;;;;10.10;75.10;;;;;;5094891;28;19916;-68
2023/11/07 06:30:29;;;;;;;;;;;10.10;75.10;;;;;;5094169;28;19930;-68
2023/11/07 06:32:56;;;;;;;;;;;10.10;75.00;;;;;;5094891;28;19922;-68
2023/11/07 06:35:22;;;;;;;;;;;10.20;74.80;;;;;;5094726;28;19915;-68
2023/11/07 06:37:48;;;;;;;;;;;10.20;74.70;;;;;;5094576;28;19916;-69
2023/11/07 06:40:16;;;;;;;;;;;10.20;74.70;;;;;;5092735;28;19920;-68
2023/11/07 06:42:45;;;;;;;;;;;10.30;74.70;;;;;;5093701;28;20372;-70
2023/11/07 06:45:14;;;;;;;;;;;10.40;74.50;;;;;;5094565;28;19961;-70
2023/11/07 06:47:59;;;;;;;;;;;10.50;74.60;;;;;;5095019;28;20010;-70
2023/11/07 06:50:26;;;;;;;;;;;10.50;74.30;;;;;;5093710;28;20403;-71
2023/11/07 06:52:53;;;;;;;;;;;10.60;74.30;;;;;;5093204;28;20372;-69
2023/11/07 06:55:24;;;;;;;;;;;10.60;74.20;;;;;;5093236;28;19912;-68
2023/11/07 06:57:51;;;;;;;;;;;10.60;74.40;;;;;;5093316;28;19927;-70
2023/11/07 07:00:21;;;;;;;;;;;10.70;74.20;;;;;;5075427;28;19959;-70
2023/11/07 07:02:48;;;;;;;;;;;10.80;74.20;;;;;;5093242;28;19916;-68
2023/11/07 07:05:15;;;;;;;;;;;10.80;73.80;;;;;;5090413;28;19923;-68
2023/11/07 07:07:41;;;;;;;;;;;10.80;74.20;;;;;;5094612;28;19922;-69
2023/11/07 07:10:09;;;;;;;;;;;10.80;74.30;;;;;;5093464;28;19964;-68
2023/11/07 07:12:53;;;;;;;;;;;10.90;73.80;;;;;;5109913;28;19920;-68
2023/11/07 07:15:19;;;;;;;;;;;11.00;74.10;;;;;;5092944;28;19916;-69
2023/11/07 07:17:45;;;;;;;;;;;11.00;73.60;;;;;;5109889;28;19912;-68
2023/11/07 07:20:11;;;;;;;;;;;11.00;74.20;;;;;;5093146;28;19931;-68
2023/11/07 07:22:39;;;;;;;;;;;11.00;74.20;;;;;;5092297;28;19915;-68
2023/11/07 07:25:05;;;;;;;;;;;11.00;74.40;;;;;;5093796;28;19951;-68
2023/11/07 07:27:33;;;;;;;;;;;11.00;74.60;;;;;;5094197;28;20011;-68
2023/11/07 07:30:00;;;;;;;;;;;11.10;74.50;;;;;;5109257;28;19950;-68
2023/11/07 07:35:15;;;;;;;;;;;11.00;74.70;;;;;;5107055;28;19943;-69
2023/11/07 07:37:42;;;;;;;;;;;11.00;74.80;;;;;;5093917;28;20245;-68
2023/11/07 07:40:10;;;;;;;;;;;11.10;74.70;;;;;;5092839;28;19912;-68
2023/11/07 07:42:36;;;;;;;;;;;11.00;74.70;;;;;;5093821;28;19920;-68
2023/11/07 07:45:03;;;;;;;;;;;11.10;74.90;;;;;;5092325;28;20377;-68
2023/11/07 07:47:29;;;;;;;;;;;11.10;74.70;;;;;;5092095;28;19922;-68
2023/11/07 07:49:55;;;;;;;;;;;11.20;74.20;;;;;;5109124;28;20006;-68
2023/11/07 07:52:22;;;;;;;;;;;11.20;74.60;;;;;;5108800;28;20388;-68
2023/11/07 07:54:48;;;;;;;;;;;11.30;74.80;;;;;;5093616;28;19920;-68
2023/11/07 07:57:17;;;;;;;;;;;11.40;74.40;;;;;;5091856;28;20430;-68
2023/11/07 07:59:44;;;;;;;;;;;11.50;74.50;;;;;;5093337;28;20119;-68
2023/11/07 08:02:10;;;;;;;;;;;11.50;74.10;;;;;;5092842;28;19920;-68
2023/11/07 08:04:36;;;;;;;;;;;11.60;74.20;;;;;;5108963;28;19957;-68
2023/11/07 08:07:02;;;;;;;;;;;11.60;74.20;;;;;;5093380;28;19921;-68
2023/11/07 08:09:28;;;;;;;;;;;11.60;74.60;;;;;;5091477;28;19916;-69
2023/11/07 08:11:56;;;;;;;;;;;11.60;74.80;;;;;;5091214;28;20008;-69
2023/11/07 08:14:23;;;;;;;;;;;11.60;75.30;;;;;;5108902;28;19912;-68
2023/11/07 08:16:50;;;;;;;;;;;11.50;75.50;;;;;;5091693;28;19982;-68
2023/11/07 08:19:17;;;;;;;;;;;11.50;75.80;;;;;;5091614;28;19912;-68
2023/11/07 08:21:43;;;;;;;;;;;11.60;75.30;;;;;;5092711;28;19965;-69
2023/11/07 08:24:12;;;;;;;;;;;11.80;74.60;;;;;;5091830;28;19918;-68
2023/11/07 08:26:38;;;;;;;;;;;11.90;74.30;;;;;;5093063;28;20003;-68
2023/11/07 08:29:08;;;;;;;;;;;12.00;74.10;;;;;;5091763;28;19961;-69
2023/11/07 08:31:35;;;;;;;;;;;12.10;74.50;;;;;;5090934;28;19985;-68
2023/11/07 08:34:01;;;;;;;;;;;12.20;74.40;;;;;;5093070;28;20011;-68
2023/11/07 08:36:28;;;;;;;;;;;12.20;74.30;;;;;;5095102;28;19969;-68
2023/11/07 08:38:54;;;;;;;;;;;12.30;74.30;;;;;;5112766;28;19973;-68
2023/11/07 08:41:20;;;;;;;;;;;12.30;74.60;;;;;;5096643;28;19920;-67
2023/11/07 08:43:47;;;;;;;;;;;12.40;74.60;;;;;;5095749;28;19912;-69
2023/11/07 08:46:19;;;;;;;;;;;12.40;74.60;;;;;;5095775;28;19951;-68
2023/11/07 08:48:45;;;;;;;;;;;12.30;74.90;;;;;;5112447;28;20277;-69
2023/11/07 08:51:14;;;;;;;;;;;12.30;75.10;;;;;;5097518;28;19919;-68
2023/11/07 08:54:00;;;;;;;;;;;12.40;74.40;;;;;;5096807;28;19923;-68
2023/11/07 08:56:26;;;;;;;;;;;12.60;74.60;;;;;;5096782;28;19920;-68
2023/11/07 08:58:52;;;;;;;;;;;12.80;74.30;;;;;;5096815;28;19958;-69
2023/11/07 09:01:18;;;;;;;;;;;13.20;73.20;;;;;;5096048;28;19927;-68
2023/11/07 09:03:45;;;;;;;;;;;13.80;72.40;;;;;;5095446;28;20361;-68
2023/11/07 09:06:11;;;;;;;;;;;14.00;71.50;;;;;;5095611;28;19924;-69
2023/11/07 09:08:37;;;;;;;;;;;14.20;71.30;;;;;;5096521;28;19937;-68
2023/11/07 09:11:03;;;;;;;;;;;14.20;71.20;;;;;;5094626;28;20295;-69
2023/11/07 09:13:29;;;;;;;;;;;14.20;71.50;;;;;;5096446;28;20391;-68
2023/11/07 09:15:58;;;;;;;;;;;14.10;72.20;;;;;;5096522;28;19920;-67
2023/11/07 09:18:26;;;;;;;;;;;14.10;71.80;;;;;;5095066;28;19915;-69
2023/11/07 09:20:53;;;;;;;;;;;14.10;72.50;;;;;;5094305;28;20373;-68
2023/11/07 09:23:19;;;;;;;;;;;14.10;72.30;;;;;;5096210;28;20357;-68
2023/11/07 09:25:45;;;;;;;;;;;14.00;71.90;;;;;;5078166;28;19959;-69
2023/11/07 09:28:11;;;;;;;;;;;14.00;72.80;;;;;;5096052;28;19912;-68
2023/11/07 09:30:37;;;;;;;;;;;14.10;72.90;;;;;;5095473;28;20038;-68
2023/11/07 09:33:06;;;;;;;;;;;14.10;72.70;;;;;;5096031;28;19952;-69
2023/11/07 09:35:52;;;;;;;;;;;14.20;72.60;;;;;;5096271;28;19918;-68
2023/11/07 09:38:18;;;;;;;;;;;14.30;72.10;;;;;;5094502;28;20365;-68
2023/11/07 09:40:44;;;;;;;;;;;14.40;72.10;;;;;;5093903;28;20417;-68
2023/11/07 09:43:12;;;;;;;;;;;14.40;72.20;;;;;;5094667;28;20377;-68
2023/11/07 09:45:39;;;;;;;;;;;14.40;71.60;;;;;;5094468;28;20361;-69
2023/11/07 09:48:09;;;;;;;;;;;14.40;72.30;;;;;;5095859;28;19912;-68
2023/11/07 09:50:40;;;;;;;;;;;14.40;71.90;;;;;;5095176;28;20355;-69
2023/11/07 09:53:08;;;;;;;;;;;14.30;72.40;;;;;;5094454;28;19959;-68
2023/11/07 09:55:34;;;;;;;;;;;14.30;72.50;;;;;;5094500;28;19920;-68
2023/11/07 09:58:05;;;;;;;;;;;14.30;72.80;;;;;;5077370;28;20354;-69
2023/11/07 10:00:33;;;;;;;;;;;14.30;72.70;;;;;;5076856;28;20388;-68
2023/11/07 10:03:00;;;;;;;;;;;14.30;72.50;;;;;;5094343;28;19916;-69
2023/11/07 10:05:26;;;;;;;;;;;14.30;72.60;;;;;;5094151;28;19923;-68
2023/11/07 10:07:52;;;;;;;;;;;14.30;72.70;;;;;;5077165;28;19916;-68
2023/11/07 10:10:19;;;;;;;;;;;14.20;72.70;;;;;;5094566;28;19911;-69
2023/11/07 10:12:45;;;;;;;;;;;14.20;73.00;;;;;;5077316;28;19920;-68
2023/11/07 10:15:30;;;;;;;;;;;14.10;73.10;;;;;;5094150;28;20321;-68
2023/11/07 10:17:57;;;;;;;;;;;14.10;73.30;;;;;;5094021;28;19920;-68
2023/11/07 10:20:23;;;;;;;;;;;14.10;73.50;;;;;;5094161;28;20403;-69
2023/11/07 10:22:49;;;;;;;;;;;14.10;73.70;;;;;;5093929;28;19934;-69
2023/11/07 10:25:35;;;;;;;;;;;14.10;73.50;;;;;;5093789;28;19912;-68
2023/11/07 10:28:02;;;;;;;;;;;14.20;73.70;;;;;;5076738;28;19920;-68
2023/11/07 10:30:47;;;;;;;;;;;14.20;73.90;;;;;;5092952;28;19919;-69
2023/11/07 10:33:35;;;;;;;;;;;14.20;74.10;;;;;;5093766;28;19923;-68
2023/11/07 10:36:02;;;;;;;;;;;14.20;74.30;;;;;;5077155;28;19916;-69
2023/11/07 10:41:26;;;;;;;;;;;14.10;74.80;;;;;;5093121;28;20320;-69
2023/11/07 10:43:52;;;;;;;;;;;14.10;75.10;;;;;;5094858;28;20046;-67
2023/11/07 10:46:18;;;;;;;;;;;14.00;75.00;;;;;;5094535;28;19920;-69
2023/11/07 10:48:44;;;;;;;;;;;14.10;74.40;;;;;;5093357;28;19920;-68
2023/11/07 10:51:29;;;;;;;;;;;14.20;75.10;;;;;;5092521;28;19962;-68
2023/11/07 10:53:56;;;;;;;;;;;14.30;74.80;;;;;;5093417;28;19916;-68
2023/11/07 10:56:23;;;;;;;;;;;14.50;74.60;;;;;;5094461;28;19920;-68
2023/11/07 10:59:28;;;;;;;;;;;14.60;74.20;;;;;;5092563;28;19912;-69
2023/11/07 11:01:54;;;;;;;;;;;14.70;73.80;;;;;;5094011;28;19919;-68
2023/11/07 11:04:39;;;;;;;;;;;14.80;73.60;;;;;;5093099;28;20257;-68
2023/11/07 11:07:07;;;;;;;;;;;14.90;73.50;;;;;;5076158;28;19920;-68
2023/11/07 11:09:34;;;;;;;;;;;15.00;73.40;;;;;;5092748;28;20288;-68
2023/11/07 11:12:02;;;;;;;;;;;15.10;73.30;;;;;;5092444;28;19920;-67
2023/11/07 11:14:28;;;;;;;;;;;15.20;73.20;;;;;;5075859;28;19930;-69
2023/11/07 11:17:07;;;;;;;;;;;15.10;73.10;;;;;;5092804;28;19920;-68
2023/11/07 11:19:40;;;;;;;;;;;15.10;73.20;;;;;;5092844;28;19916;-68
2023/11/07 11:22:44;;;;;;;;;;;15.10;73.50;;;;;;5075074;28;19916;-69
2023/11/07 11:25:47;;;;;;;;;;;15.10;73.60;;;;;;5093955;28;19961;-68
2023/11/07 11:28:13;;;;;;;;;;;15.10;73.30;;;;;;5093746;28;20304;-68
2023/11/07 11:30:40;;;;;;;;;;;15.10;72.80;;;;;;5091962;28;19923;-68
2023/11/07 11:33:26;;;;;;;;;;;15.10;73.40;;;;;;5092556;28;19950;-69
2023/11/07 11:35:52;;;;;;;;;;;15.10;73.50;;;;;;5093781;28;20311;-68
2023/11/07 11:40:59;;;;;;;;;;;15.20;73.50;;;;;;5091925;28;19958;-69
2023/11/07 11:43:46;;;;;;;;;;;15.30;73.30;;;;;;5092204;28;20037;-69
2023/11/07 11:46:15;;;;;;;;;;;15.20;73.10;;;;;;5093594;28;19969;-69
2023/11/07 11:49:00;;;;;;;;;;;15.10;73.50;;;;;;5093347;28;20438;-68
2023/11/07 11:51:43;;;;;;;;;;;15.00;73.70;;;;;;5093005;28;19923;-69
2023/11/07 11:54:10;;;;;;;;;;;14.90;73.80;;;;;;5092221;28;19961;-68
2023/11/07 11:56:48;;;;;;;;;;;14.90;73.90;;;;;;5091782;28;19949;-68
2023/11/07 11:59:16;;;;;;;;;;;14.90;73.90;;;;;;5090996;28;19916;-69
2023/11/07 12:02:03;;;;;;;;;;;14.90;73.90;;;;;;5093087;28;19924;-68
2023/11/07 12:04:33;;;;;;;;;;;15.00;73.60;;;;;;5093407;28;19920;-68
2023/11/07 12:07:22;;;;;;;;;;;15.00;73.70;;;;;;5093430;28;19920;-68
2023/11/07 12:09:50;;;;;;;;;;;15.00;73.60;;;;;;5091732;28;20334;-69
2023/11/07 12:12:17;;;;;;;;;;;15.10;73.60;;;;;;5108267;28;20028;-69
2023/11/07 12:15:02;;;;;;;;;;;15.10;73.50;;;;;;5091897;28;19912;-68
2023/11/07 12:17:51;;;;;;;;;;;15.10;73.30;;;;;;5092045;28;19920;-68
2023/11/07 12:20:17;;;;;;;;;;;15.10;73.50;;;;;;5092257;28;19916;-68
2023/11/07 12:23:04;;;;;;;;;;;15.10;73.50;;;;;;5075274;28;20436;-69
2023/11/07 12:25:29;;;;;;;;;;;15.10;73.40;;;;;;5091736;28;19912;-68
2023/11/07 12:28:03;;;;;;;;;;;15.10;73.60;;;;;;5092999;28;19963;-68
2023/11/07 12:30:30;;;;;;;;;;;15.00;73.50;;;;;;5107941;28;19944;-68
2023/11/07 12:33:15;;;;;;;;;;;15.10;73.60;;;;;;5091629;28;20376;-69
2023/11/07 12:35:41;;;;;;;;;;;15.10;73.60;;;;;;5074840;28;19916;-69
2023/11/07 12:38:09;;;;;;;;;;;15.30;73.50;;;;;;5091352;28;19916;-69
2023/11/07 12:40:36;;;;;;;;;;;15.50;72.70;;;;;;5107892;28;19916;-69
2023/11/07 12:45:49;;;;;;;;;;;16.30;70.70;;;;;;5106306;28;19961;-69
2023/11/07 12:48:24;;;;;;;;;;;16.70;69.30;;;;;;5091505;28;19974;-70
2023/11/07 12:50:50;;;;;;;;;;;16.70;68.90;;;;;;5107862;28;19923;-69
2023/11/07 12:53:18;;;;;;;;;;;16.60;69.50;;;;;;5091381;28;19984;-69
2023/11/07 12:56:03;;;;;;;;;;;16.40;69.60;;;;;;5108521;28;19962;-71
2023/11/07 12:58:29;;;;;;;;;;;16.30;70.50;;;;;;5092674;28;19954;-70
2023/11/07 13:00:59;;;;;;;;;;;16.10;70.70;;;;;;5092242;28;19965;-70
2023/11/07 13:03:31;;;;;;;;;;;16.00;71.20;;;;;;5108384;28;19999;-70
2023/11/07 13:06:04;;;;;;;;;;;15.90;71.50;;;;;;5108263;28;19926;-70
2023/11/07 13:08:35;;;;;;;;;;;15.80;71.80;;;;;;5074231;28;19912;-70
2023/11/07 13:11:20;;;;;;;;;;;15.80;71.80;;;;;;5091978;28;19927;-71
2023/11/07 13:13:48;;;;;;;;;;;15.70;72.10;;;;;;5091657;28;19916;-71
2023/11/07 13:16:15;;;;;;;;;;;15.60;72.20;;;;;;5091067;28;19924;-70
2023/11/07 13:18:59;;;;;;;;;;;15.60;72.50;;;;;;5091277;28;19912;-69
2023/11/07 13:21:25;;;;;;;;;;;15.60;72.90;;;;;;5075154;28;20300;-70
2023/11/07 13:23:51;;;;;;;;;;;15.50;73.30;;;;;;5094990;28;19912;-70
2023/11/07 13:26:18;;;;;;;;;;;15.40;73.40;;;;;;5095008;28;19947;-70
2023/11/07 13:28:45;;;;;;;;;;;15.40;73.70;;;;;;5095042;28;19919;-71
2023/11/07 13:31:12;;;;;;;;;;;15.30;73.30;;;;;;5095611;28;20403;-70
2023/11/07 13:33:45;;;;;;;;;;;15.30;73.70;;;;;;5094869;28;20357;-71
2023/11/07 13:36:15;;;;;;;;;;;15.30;73.40;;;;;;5094729;28;19959;-71
2023/11/07 13:41:25;;;;;;;;;;;15.40;72.90;;;;;;5095492;28;19970;-68
2023/11/07 13:43:51;;;;;;;;;;;15.40;73.00;;;;;;5095941;28;20002;-70
2023/11/07 13:46:17;;;;;;;;;;;15.40;73.20;;;;;;5094410;28;20018;-70
2023/11/07 13:48:44;;;;;;;;;;;15.40;73.20;;;;;;5097649;28;20381;-71
2023/11/07 13:51:10;;;;;;;;;;;15.40;73.10;;;;;;5103832;28;19920;-70
2023/11/07 13:53:37;;;;;;;;;;;15.40;73.20;;;;;;5111731;28;19915;-70
2023/11/07 13:56:04;;;;;;;;;;;15.40;73.20;;;;;;5114909;28;20327;-71
2023/11/07 13:58:30;;;;;;;;;;;15.40;73.20;;;;;;5105253;28;19919;-70
2023/11/07 14:00:56;;;;;;;;;;;15.40;73.40;;;;;;5104770;28;19923;-71
2023/11/07 14:03:22;;;;;;;;;;;15.40;73.50;;;;;;5109953;28;19916;-70
2023/11/07 14:05:48;;;;;;;;;;;15.30;73.80;;;;;;5115898;28;20419;-71
2023/11/07 14:11:00;;;;;;;;;;;15.30;74.00;;;;;;5114276;28;19927;-71
2023/11/07 14:13:26;;;;;;;;;;;15.30;74.00;;;;;;5116034;28;19912;-69
2023/11/07 14:15:52;;;;;;;;;;;15.40;73.90;;;;;;5114474;28;20396;-71
2023/11/07 14:18:18;;;;;;;;;;;15.30;73.90;;;;;;5115382;28;20318;-71
2023/11/07 14:21:04;;;;;;;;;;;15.40;73.60;;;;;;5096587;28;19926;-70
2023/11/07 14:23:30;;;;;;;;;;;15.40;73.70;;;;;;5114224;28;19912;-71
2023/11/07 14:25:58;;;;;;;;;;;15.50;73.70;;;;;;5114114;28;20390;-69
2023/11/07 14:28:24;;;;;;;;;;;15.40;72.80;;;;;;5115379;28;19915;-71
2023/11/07 14:30:50;;;;;;;;;;;15.40;73.50;;;;;;5113359;28;19926;-70
2023/11/07 14:33:19;;;;;;;;;;;15.40;74.00;;;;;;5114246;28;19911;-70
2023/11/07 14:35:45;;;;;;;;;;;15.30;73.80;;;;;;5114020;28;19963;-69
2023/11/07 14:38:11;;;;;;;;;;;15.50;73.70;;;;;;5113729;28;19915;-70
2023/11/07 14:40:37;;;;;;;;;;;15.60;72.80;;;;;;5113230;28;19915;-71
2023/11/07 14:43:10;;;;;;;;;;;15.60;73.20;;;;;;5115079;28;19950;-70
2023/11/07 14:45:56;;;;;;;;;;;15.60;73.20;;;;;;5115064;28;20367;-71
2023/11/07 14:48:21;;;;;;;;;;;15.60;73.50;;;;;;5113862;28;19968;-71